Time;durP1;ratioP1;P1;durP2;ratioP2;P2;SDS_P1;SDS_P2;PMS_P1;PMS_P2;Temp;Humidity;BMP_temperature;BMP_pressure;BME280_temperature;BME280_humidity;BME280_pressure;Samples;Min_cycle;Max_cycle;Signal;HPM_P1;HPM_P2
2022/07/30 00:01:38;;;;;;;11.48;6.20;;;13.50;99.90;;;;;;5033677;28;20022;-77
2022/07/30 00:04:04;;;;;;;7.97;6.25;;;13.50;99.90;;;;;;5033371;28;20032;-77
2022/07/30 00:06:30;;;;;;;10.77;5.80;;;13.40;99.90;;;;;;5033575;28;20108;-77
2022/07/30 00:08:55;;;;;;;10.45;6.15;;;13.40;99.90;;;;;;5038701;28;20022;-77
2022/07/30 00:11:21;;;;;;;8.25;6.15;;;13.30;99.90;;;;;;5053362;28;20071;-77
2022/07/30 00:13:47;;;;;;;6.63;5.70;;;13.40;99.90;;;;;;5053202;28;20112;-77
2022/07/30 00:16:12;;;;;;;9.43;5.70;;;13.30;99.90;;;;;;5053260;28;20154;-77
2022/07/30 00:18:38;;;;;;;9.02;4.95;;;13.30;99.90;;;;;;5035673;28;20030;-77
2022/07/30 00:21:03;;;;;;;7.70;5.22;;;13.40;99.90;;;;;;5033322;28;20034;-77
2022/07/30 00:23:31;;;;;;;7.97;4.90;;;13.20;99.90;;;;;;5033242;28;20029;-77
2022/07/30 00:25:56;;;;;;;7.03;4.57;;;13.20;99.90;;;;;;5033305;28;20151;-77
2022/07/30 00:28:22;;;;;;;5.93;4.50;;;13.20;99.90;;;;;;5029222;28;20473;-77
2022/07/30 00:30:47;;;;;;;5.60;3.97;;;13.10;99.90;;;;;;5013308;28;20366;-77
2022/07/30 00:33:21;;;;;;;7.93;4.43;;;13.00;99.90;;;;;;5043987;23;20140;-77
2022/07/30 00:35:47;;;;;;;7.10;4.55;;;13.00;99.90;;;;;;5034004;28;20025;-77
2022/07/30 00:38:20;;;;;;;7.82;4.25;;;12.90;99.90;;;;;;5017142;28;20026;-77
2022/07/30 00:40:46;;;;;;;5.60;4.47;;;12.90;99.90;;;;;;5027832;28;20032;-76
2022/07/30 00:43:16;;;;;;;5.93;3.78;;;12.90;99.90;;;;;;5038350;28;20025;-77
2022/07/30 00:45:45;;;;;;;4.78;3.42;;;12.80;99.90;;;;;;5036176;28;20052;-77
2022/07/30 00:48:13;;;;;;;5.18;3.72;;;12.80;99.90;;;;;;5018263;28;20080;-77
2022/07/30 00:50:39;;;;;;;4.38;3.70;;;12.80;99.90;;;;;;5035094;28;20476;-77
2022/07/30 00:53:05;;;;;;;5.32;3.63;;;12.80;99.90;;;;;;5035585;28;20044;-77
2022/07/30 00:55:32;;;;;;;4.75;3.92;;;12.90;99.90;;;;;;5035925;28;20025;-77
2022/07/30 00:57:58;;;;;;;5.50;3.85;;;12.90;99.90;;;;;;5035228;28;20052;-77
2022/07/30 01:00:24;;;;;;;5.93;4.03;;;12.80;99.90;;;;;;5034219;28;20038;-77
2022/07/30 01:02:49;;;;;;;5.07;3.83;;;12.90;99.90;;;;;;5027107;28;20026;-76
2022/07/30 01:05:15;;;;;;;6.30;3.83;;;12.90;99.90;;;;;;5034302;28;20025;-77
2022/07/30 01:07:42;;;;;;;4.35;3.63;;;12.80;99.90;;;;;;5035315;28;20017;-77
2022/07/30 01:10:10;;;;;;;5.25;3.70;;;12.80;99.90;;;;;;5035083;28;20123;-77
2022/07/30 01:12:36;;;;;;;5.82;3.97;;;12.80;99.90;;;;;;5033999;28;20700;-77
2022/07/30 01:15:05;;;;;;;4.90;3.63;;;13.00;99.90;;;;;;5035795;28;20053;-76
2022/07/30 01:17:31;;;;;;;6.45;4.28;;;12.90;99.90;;;;;;5041126;28;20056;-77
2022/07/30 01:20:02;;;;;;;6.82;4.65;;;12.80;99.90;;;;;;5045346;28;20029;-77
2022/07/30 01:22:27;;;;;;;6.18;4.50;;;12.70;99.90;;;;;;5036075;28;20089;-77
2022/07/30 01:24:58;;;;;;;5.35;4.25;;;12.70;99.90;;;;;;5036894;28;20060;-77
2022/07/30 01:27:27;;;;;;;7.28;5.40;;;12.60;99.90;;;;;;5036842;28;20026;-77
2022/07/30 01:29:54;;;;;;;5.47;4.38;;;12.60;99.90;;;;;;5035571;28;20031;-77
2022/07/30 01:32:21;;;;;;;6.55;4.57;;;12.60;99.90;;;;;;5034897;28;20053;-76
2022/07/30 01:34:49;;;;;;;6.82;4.80;;;12.60;99.90;;;;;;5021047;28;20385;-77
2022/07/30 01:37:15;;;;;;;7.13;4.93;;;12.50;99.90;;;;;;5023603;28;20525;-77
2022/07/30 01:39:42;;;;;;;8.50;5.18;;;12.50;99.90;;;;;;5015647;28;20504;-77
2022/07/30 01:42:08;;;;;;;8.65;5.25;;;12.60;99.90;;;;;;5015853;28;20393;-77
2022/07/30 01:44:37;;;;;;;8.07;5.53;;;12.70;99.90;;;;;;5015966;28;20030;-77
2022/07/30 01:47:14;;;;;;;11.02;6.20;;;12.80;99.90;;;;;;5009392;28;20029;-77
2022/07/30 01:49:41;;;;;;;14.05;6.82;;;13.00;99.90;;;;;;4996892;28;20044;-77
2022/07/30 01:52:29;;;;;;;13.50;6.72;;;13.20;99.90;;;;;;5014886;28;20022;-77
2022/07/30 01:54:57;;;;;;;16.27;6.40;;;13.30;99.90;;;;;;5016019;28;20046;-77
2022/07/30 01:57:24;;;;;;;11.88;6.07;;;13.30;99.90;;;;;;5004477;28;20026;-77
2022/07/30 01:59:54;;;;;;;11.57;6.35;;;13.50;99.90;;;;;;5025148;28;20080;-77
2022/07/30 02:02:19;;;;;;;12.80;6.20;;;13.40;99.90;;;;;;5016402;28;20014;-76
2022/07/30 02:04:45;;;;;;;8.82;5.78;;;13.40;99.90;;;;;;5015710;28;20671;-76
2022/07/30 02:07:23;;;;;;;13.55;6.38;;;13.40;99.90;;;;;;5014944;28;20084;-77
2022/07/30 02:10:00;;;;;;;10.45;5.35;;;13.40;99.90;;;;;;5013479;28;20552;-77
2022/07/30 02:12:27;;;;;;;8.13;5.65;;;13.30;99.90;;;;;;5014387;28;20029;-77
2022/07/30 02:15:11;;;;;;;13.25;5.80;;;13.60;99.90;;;;;;5015153;28;20029;-77
2022/07/30 02:17:41;;;;;;;9.30;5.47;;;13.50;99.90;;;;;;5015658;28;20041;-78
2022/07/30 02:20:11;;;;;;;9.55;5.90;;;13.40;99.90;;;;;;5015237;28;20030;-77
2022/07/30 02:22:43;;;;;;;12.55;5.57;;;13.50;99.90;;;;;;5000966;28;20026;-77
2022/07/30 02:25:12;;;;;;;10.20;5.78;;;13.70;99.90;;;;;;5028877;28;20492;-77
2022/07/30 02:27:40;;;;;;;12.60;5.63;;;13.70;99.90;;;;;;5027593;28;20363;-77
2022/07/30 02:30:07;;;;;;;9.98;6.65;;;13.70;99.90;;;;;;5019093;28;20030;-77
2022/07/30 02:32:37;;;;;;;12.48;5.60;;;13.70;99.90;;;;;;5029887;28;20050;-77
2022/07/30 02:35:10;;;;;;;12.07;5.35;;;13.70;99.90;;;;;;5019421;28;20026;-77
2022/07/30 02:37:38;;;;;;;12.13;5.25;;;13.70;99.90;;;;;;5009323;28;20359;-77
2022/07/30 02:40:04;;;;;;;12.10;4.68;;;13.50;99.90;;;;;;5019165;28;20084;-77
2022/07/30 02:42:31;;;;;;;11.95;5.30;;;13.80;99.90;;;;;;5019444;28;20076;-77
2022/07/30 02:44:58;;;;;;;9.38;5.75;;;13.70;99.90;;;;;;5019087;28;20029;-77
2022/07/30 02:47:26;;;;;;;12.35;4.72;;;13.80;99.90;;;;;;5021100;28;20482;-77
2022/07/30 02:49:53;;;;;;;11.57;4.60;;;13.80;99.90;;;;;;5007527;28;20072;-78
2022/07/30 02:52:20;;;;;;;11.70;4.85;;;13.90;99.90;;;;;;5020109;28;20030;-78
2022/07/30 02:55:06;;;;;;;10.15;4.22;;;13.80;99.90;;;;;;5020762;28;20026;-78
2022/07/30 02:57:33;;;;;;;8.40;4.35;;;13.90;99.90;;;;;;5018901;28;20049;-78
2022/07/30 02:59:59;;;;;;;10.30;5.15;;;13.90;1.00;;;;;;5020531;28;20050;-78
2022/07/30 03:02:25;;;;;;;13.52;5.80;;;13.90;1.00;;;;;;5019391;28;20018;-77
2022/07/30 03:04:52;;;;;;;13.18;5.07;;;13.90;1.00;;;;;;5018332;28;20022;-78
2022/07/30 03:07:19;;;;;;;9.82;5.53;;;14.10;1.00;;;;;;5004524;28;20075;-78
2022/07/30 03:09:46;;;;;;;14.02;5.25;;;14.00;1.00;;;;;;5016425;28;20105;-78
2022/07/30 03:12:13;;;;;;;13.38;5.28;;;13.80;1.00;;;;;;4999392;28;20049;-78
2022/07/30 03:14:39;;;;;;;13.65;5.32;;;13.90;1.00;;;;;;5013606;28;20084;-78
2022/07/30 03:17:06;;;;;;;8.55;5.25;;;13.90;1.00;;;;;;5020369;28;20081;-78
2022/07/30 03:19:35;;;;;;;14.98;5.97;;;13.90;1.00;;;;;;5005642;28;20037;-78
2022/07/30 03:22:03;;;;;;;15.82;5.95;;;13.90;1.00;;;;;;5016127;28;20018;-78
2022/07/30 03:24:31;;;;;;;9.55;5.03;;;13.90;1.00;;;;;;5018639;28;20029;-78
2022/07/30 03:26:59;;;;;;;11.82;4.88;;;13.70;1.00;;;;;;5018148;28;20088;-78
2022/07/30 03:29:26;;;;;;;12.07;5.07;;;13.60;1.00;;;;;;5018358;28;20022;-78
2022/07/30 03:31:52;;;;;;;9.80;4.72;;;13.60;1.00;;;;;;5018439;28;20018;-78
2022/07/30 03:34:20;;;;;;;8.93;4.82;;;13.50;1.00;;;;;;5017487;28;20103;-78
2022/07/30 03:36:46;;;;;;;9.65;4.43;;;13.40;1.00;;;;;;5008081;28;20022;-78
2022/07/30 03:39:12;;;;;;;8.30;4.75;;;13.40;1.00;;;;;;5025950;28;20104;-78
2022/07/30 03:41:39;;;;;;;14.68;5.25;;;13.30;1.00;;;;;;5030138;28;20084;-78
2022/07/30 03:44:06;;;;;;;8.13;5.28;;;13.20;1.00;;;;;;5018402;28;20429;-77
2022/07/30 03:46:35;;;;;;;16.08;5.72;;;13.20;1.00;;;;;;5018472;28;20022;-78
2022/07/30 03:49:01;;;;;;;13.20;5.57;;;13.10;1.00;;;;;;5028929;28;20077;-78
2022/07/30 03:51:27;;;;;;;8.80;5.07;;;13.10;1.00;;;;;;5015903;28;20817;-78
2022/07/30 03:53:53;;;;;;;13.18;5.57;;;13.10;1.00;;;;;;5017939;28;20469;-78
2022/07/30 03:56:19;;;;;;;10.20;5.65;;;13.00;1.00;;;;;;5014484;28;20018;-78
2022/07/30 03:58:45;;;;;;;10.25;5.45;;;13.10;1.00;;;;;;5028673;28;20052;-78
2022/07/30 04:01:11;;;;;;;11.25;6.00;;;13.00;1.00;;;;;;5021206;28;20026;-78
2022/07/30 04:03:36;;;;;;;10.90;5.90;;;12.90;1.00;;;;;;5019628;28;20454;-78
2022/07/30 04:06:02;;;;;;;10.48;5.63;;;13.10;1.00;;;;;;5019198;28;20029;-78
2022/07/30 04:08:28;;;;;;;12.13;5.53;;;13.10;1.00;;;;;;5018584;28;20163;-78
2022/07/30 04:10:54;;;;;;;9.18;5.22;;;13.10;1.00;;;;;;5018287;28;20084;-78
2022/07/30 04:13:19;;;;;;;10.30;5.72;;;13.00;1.00;;;;;;5018604;28;20096;-78
2022/07/30 04:16:17;;;;;;;14.70;6.20;;;13.10;1.00;;;;;;5003482;28;20023;-78
2022/07/30 04:18:49;;;;;;;12.50;5.45;;;13.20;1.00;;;;;;5018420;28;20390;-78
2022/07/30 04:21:17;;;;;;;9.70;5.35;;;13.10;1.00;;;;;;5017482;28;20032;-78
2022/07/30 04:23:44;;;;;;;7.75;5.15;;;13.20;1.00;;;;;;5018082;28;20492;-78
2022/07/30 04:26:10;;;;;;;10.48;5.10;;;13.20;1.00;;;;;;5019108;28;20026;-78
2022/07/30 04:28:36;;;;;;;9.85;5.65;;;13.30;1.00;;;;;;5018464;28;20022;-78
2022/07/30 04:31:04;;;;;;;9.02;4.55;;;13.50;1.00;;;;;;5026853;28;20037;-78
2022/07/30 04:33:29;;;;;;;8.40;4.85;;;13.50;1.00;;;;;;5001867;28;20199;-78
2022/07/30 04:35:55;;;;;;;11.23;5.18;;;13.60;1.00;;;;;;5016741;28;20084;-79
2022/07/30 04:38:20;;;;;;;12.48;5.00;;;13.80;1.00;;;;;;5017360;28;20022;-78
2022/07/30 04:40:46;;;;;;;10.95;4.82;;;14.00;1.00;;;;;;5017835;28;20026;-78
2022/07/30 04:43:12;;;;;;;13.85;5.35;;;14.00;1.00;;;;;;5014615;28;20026;-78
2022/07/30 04:45:41;;;;;;;8.80;4.85;;;14.10;1.00;;;;;;5018860;28;20041;-78
2022/07/30 04:48:07;;;;;;;11.82;5.13;;;14.10;1.00;;;;;;5013867;28;20021;-78
2022/07/30 04:50:34;;;;;;;10.25;4.95;;;14.30;1.00;;;;;;5028267;28;20073;-78
2022/07/30 04:53:01;;;;;;;10.82;5.40;;;14.60;1.00;;;;;;5017984;28;20025;-78
2022/07/30 04:55:27;;;;;;;9.50;4.97;;;14.60;1.00;;;;;;5020989;28;20026;-78
2022/07/30 04:57:55;;;;;;;16.08;5.45;;;14.90;1.00;;;;;;5034933;28;20022;-80
2022/07/30 05:00:20;;;;;;;8.93;4.70;;;14.90;1.00;;;;;;5037517;28;20037;-78
2022/07/30 05:02:49;;;;;;;13.65;4.97;;;15.00;1.00;;;;;;5035964;28;20010;-81
2022/07/30 05:05:16;;;;;;;15.10;4.93;;;15.10;1.00;;;;;;5035227;28;20030;-80
2022/07/30 05:07:43;;;;;;;11.63;4.95;;;15.20;1.00;;;;;;5032403;28;20085;-78
2022/07/30 05:10:10;;;;;;;12.23;5.88;;;15.40;99.90;;;;;;5024276;28;20362;-78
2022/07/30 05:12:36;;;;;;;16.02;6.88;;;15.90;99.90;;;;;;5034459;28;20140;-78
2022/07/30 05:15:07;;;;;;;15.13;7.05;;;18.30;1.00;;;;;;5034815;28;20046;-78
2022/07/30 05:17:33;;;;;;;11.43;6.50;;;20.00;99.90;;;;;;5036280;28;20025;-78
2022/07/30 05:19:59;;;;;;;19.17;7.32;;;21.20;99.90;;;;;;5033981;28;20021;-78
2022/07/30 05:22:28;;;;;;;16.67;7.50;;;22.50;99.90;;;;;;5029288;28;20029;-77
2022/07/30 05:24:55;;;;;;;8.75;5.85;;;23.30;97.50;;;;;;5031583;28;20018;-78
2022/07/30 05:27:20;;;;;;;12.02;6.25;;;23.90;59.40;;;;;;5037689;28;20010;-78
2022/07/30 05:29:46;;;;;;;11.07;5.63;;;25.00;11.00;;;;;;5029433;28;20042;-78
2022/07/30 05:32:11;;;;;;;8.35;5.45;;;26.00;1.00;;;;;;5031513;28;20041;-78
2022/07/30 05:34:37;;;;;;;13.30;5.57;;;26.90;1.00;;;;;;5028729;28;20036;-78
2022/07/30 05:37:03;;;;;;;8.15;4.80;;;27.60;1.00;;;;;;5027248;28;20018;-78
2022/07/30 05:39:28;;;;;;;9.27;5.18;;;28.30;99.90;;;;;;5028235;28;20080;-79
2022/07/30 05:41:54;;;;;;;8.70;4.43;;;29.40;99.90;;;;;;5030515;28;20033;-79
2022/07/30 05:44:20;;;;;;;8.23;3.78;;;29.80;99.90;;;;;;5032376;28;20034;-79
2022/07/30 05:46:46;;;;;;;9.45;4.32;;;30.70;99.90;;;;;;5032892;28;20486;-79
2022/07/30 05:49:11;;;;;;;9.32;3.92;;;31.80;99.90;;;;;;5021256;28;20034;-79
2022/07/30 05:51:37;;;;;;;9.07;3.80;;;32.90;99.90;;;;;;5029087;28;20026;-78
2022/07/30 05:54:03;;;;;;;8.82;4.10;;;32.60;99.90;;;;;;5023875;28;20026;-77
2022/07/30 05:56:29;;;;;;;6.18;3.50;;;32.80;99.90;;;;;;5013925;28;20014;-77
2022/07/30 05:58:54;;;;;;;8.60;3.75;;;33.40;99.90;;;;;;5025561;28;20030;-77
2022/07/30 06:01:20;;;;;;;7.03;3.63;;;33.60;99.90;;;;;;5026378;28;20052;-77
2022/07/30 06:03:46;;;;;;;7.00;4.00;;;34.50;99.90;;;;;;5023840;28;20034;-77
2022/07/30 06:06:11;;;;;;;8.55;3.50;;;34.70;99.90;;;;;;5025901;28;20030;-77
2022/07/30 06:08:37;;;;;;;5.47;3.33;;;34.80;99.90;;;;;;5027719;28;20014;-77
2022/07/30 06:11:03;;;;;;;8.07;4.55;;;35.40;99.90;;;;;;5031311;28;20041;-80
2022/07/30 06:13:28;;;;;;;6.97;4.32;;;35.70;99.90;;;;;;5023412;28;20030;-80
2022/07/30 06:15:54;;;;;;;4.88;3.80;;;36.10;99.90;;;;;;5032046;28;20034;-80
2022/07/30 06:18:20;;;;;;;5.85;3.30;;;36.70;99.90;;;;;;5030622;28;20034;-79
2022/07/30 06:20:45;;;;;;;5.45;3.42;;;37.20;99.90;;;;;;5032967;28;20026;-80
2022/07/30 06:23:11;;;;;;;7.40;3.60;;;37.40;99.90;;;;;;5029498;28;20017;-80
2022/07/30 06:25:37;;;;;;;7.30;3.33;;;37.90;99.90;;;;;;5033547;28;20041;-79
2022/07/30 06:28:02;;;;;;;9.98;3.67;;;37.80;99.90;;;;;;5029531;28;20018;-80
2022/07/30 06:30:28;;;;;;;7.68;3.38;;;39.00;99.90;;;;;;5036727;28;20087;-79
2022/07/30 06:32:54;;;;;;;5.55;3.25;;;39.80;99.90;;;;;;5039622;28;20038;-80
2022/07/30 06:35:20;;;;;;;6.82;3.45;;;34.30;99.90;;;;;;5039907;28;20056;-80
2022/07/30 06:37:45;;;;;;;7.07;3.65;;;30.80;99.90;;;;;;5037037;28;20014;-80
2022/07/30 06:40:12;;;;;;;5.72;3.00;;;29.00;99.90;;;;;;5040085;28;20028;-80
2022/07/30 06:42:37;;;;;;;4.97;3.10;;;27.20;99.90;;;;;;5037422;28;20078;-79
2022/07/30 06:45:04;;;;;;;5.28;3.17;;;26.00;99.90;;;;;;5028869;28;20022;-80
2022/07/30 06:47:30;;;;;;;4.43;3.25;;;25.30;99.90;;;;;;5031221;28;20050;-80
2022/07/30 06:49:56;;;;;;;4.90;3.13;;;29.80;99.90;;;;;;5028094;28;21104;-80
2022/07/30 06:52:22;;;;;;;6.05;3.60;;;34.50;99.90;;;;;;5029491;28;20026;-80
2022/07/30 06:54:48;;;;;;;6.47;3.60;;;37.20;99.90;;;;;;5034590;28;20029;-79
2022/07/30 06:57:14;;;;;;;5.18;3.53;;;32.70;99.90;;;;;;5039326;28;20056;-80
2022/07/30 06:59:40;;;;;;;5.80;3.60;;;28.80;99.90;;;;;;5030855;28;20034;-79
2022/07/30 07:02:06;;;;;;;7.63;3.42;;;26.50;99.90;;;;;;5037754;28;20059;-79
2022/07/30 07:04:31;;;;;;;5.18;2.90;;;29.30;99.90;;;;;;5020465;28;20018;-79
2022/07/30 07:06:57;;;;;;;4.35;2.92;;;33.20;99.90;;;;;;5037147;28;20022;-79
2022/07/30 07:09:24;;;;;;;8.63;2.92;;;35.30;99.90;;;;;;5040579;28;20056;-80
2022/07/30 07:11:50;;;;;;;7.28;3.67;;;31.90;99.90;;;;;;5032402;28;20038;-79
2022/07/30 07:14:16;;;;;;;6.95;3.25;;;28.70;99.90;;;;;;5026478;28;20081;-79
2022/07/30 07:16:42;;;;;;;4.43;3.15;;;30.90;99.90;;;;;;5029683;28;20025;-79
2022/07/30 07:19:07;;;;;;;3.90;2.65;;;34.30;99.90;;;;;;5022654;28;20057;-79
2022/07/30 07:21:33;;;;;;;5.65;2.58;;;34.90;99.90;;;;;;5031763;28;20041;-79
2022/07/30 07:24:02;;;;;;;3.85;2.40;;;32.70;99.90;;;;;;5023362;28;20037;-78
2022/07/30 07:26:29;;;;;;;5.28;2.70;;;35.60;99.90;;;;;;5019616;28;20022;-78
2022/07/30 07:28:55;;;;;;;3.20;2.45;;;31.80;99.90;;;;;;5017241;28;20034;-77
2022/07/30 07:31:21;;;;;;;2.85;2.53;;;30.30;99.90;;;;;;5028420;28;20041;-78
2022/07/30 07:33:47;;;;;;;2.88;2.38;;;29.30;99.90;;;;;;5037417;28;20028;-79
2022/07/30 07:36:13;;;;;;;6.75;2.80;;;30.60;99.90;;;;;;5033920;28;20033;-78
2022/07/30 07:38:39;;;;;;;3.65;2.53;;;29.40;99.90;;;;;;5026472;28;20076;-76
2022/07/30 07:41:05;;;;;;;6.32;2.80;;;34.70;99.90;;;;;;5018235;28;20037;-75
2022/07/30 07:43:31;;;;;;;4.20;2.22;;;37.20;99.90;;;;;;5021984;28;20089;-76
2022/07/30 07:45:57;;;;;;;3.63;2.45;;;38.70;99.90;;;;;;5024570;28;20025;-76
2022/07/30 07:48:22;;;;;;;4.28;2.13;;;38.40;99.90;;;;;;5022357;28;20022;-76
2022/07/30 07:50:48;;;;;;;3.03;2.15;;;40.10;99.90;;;;;;5036812;28;20033;-76
2022/07/30 07:53:14;;;;;;;2.85;2.08;;;40.70;99.90;;;;;;5021126;28;20022;-77
2022/07/30 07:55:39;;;;;;;3.92;2.30;;;35.30;99.90;;;;;;5018258;28;20038;-77
2022/07/30 07:58:05;;;;;;;3.95;2.50;;;31.70;99.90;;;;;;5021036;28;20022;-75
2022/07/30 08:00:31;;;;;;;5.75;2.78;;;30.30;99.90;;;;;;5014285;28;20458;-75
2022/07/30 08:02:56;;;;;;;2.70;2.20;;;33.60;99.90;;;;;;5014200;28;20076;-75
2022/07/30 08:05:22;;;;;;;4.97;2.50;;;37.40;99.90;;;;;;5014062;28;20096;-75
2022/07/30 08:07:48;;;;;;;4.75;2.95;;;40.10;99.90;;;;;;5014202;28;20401;-76
2022/07/30 08:10:14;;;;;;;6.22;2.53;;;42.20;99.90;;;;;;5013954;28;20049;-76
2022/07/30 08:12:41;;;;;;;4.28;2.65;;;43.00;99.90;;;;;;5020886;28;20049;-78
2022/07/30 08:15:08;;;;;;;3.65;2.80;;;41.90;99.90;;;;;;5028138;28;20021;-78
2022/07/30 08:17:39;;;;;;;4.53;2.75;;;42.20;99.90;;;;;;5024726;28;20018;-78
2022/07/30 08:20:06;;;;;;;4.50;2.45;;;38.90;99.90;;;;;;5034358;28;20029;-78
2022/07/30 08:22:31;;;;;;;6.80;2.70;;;39.60;99.90;;;;;;5028881;28;20093;-78
2022/07/30 08:24:57;;;;;;;5.50;2.38;;;41.80;99.90;;;;;;5016906;28;20034;-78
2022/07/30 08:27:22;;;;;;;5.72;2.47;;;42.80;99.90;;;;;;5019402;28;20022;-78
2022/07/30 08:29:48;;;;;;;4.93;2.55;;;41.20;99.90;;;;;;5032889;28;20033;-79
2022/07/30 08:32:13;;;;;;;4.22;2.38;;;42.30;99.90;;;;;;5032207;28;20054;-79
2022/07/30 08:34:39;;;;;;;5.63;2.45;;;43.30;99.90;;;;;;5016067;28;20060;-79
2022/07/30 08:37:05;;;;;;;5.97;2.60;;;43.40;99.90;;;;;;5021360;28;20049;-79
2022/07/30 08:39:30;;;;;;;3.85;2.30;;;41.70;99.90;;;;;;5022372;28;20466;-78
2022/07/30 08:41:57;;;;;;;3.83;2.40;;;36.40;99.90;;;;;;5021268;28;20034;-79
2022/07/30 08:44:23;;;;;;;4.75;2.50;;;35.30;99.90;;;;;;5024141;28;20018;-78
2022/07/30 08:46:51;;;;;;;5.90;2.78;;;37.90;99.90;;;;;;5024513;28;20034;-78
2022/07/30 08:49:17;;;;;;;4.43;2.25;;;39.20;99.90;;;;;;5030744;28;20036;-79
2022/07/30 08:51:43;;;;;;;4.38;2.20;;;42.20;99.90;;;;;;5022011;28;20396;-79
2022/07/30 08:54:09;;;;;;;5.28;2.50;;;40.00;99.90;;;;;;5021111;28;20037;-78
2022/07/30 08:56:34;;;;;;;3.83;2.70;;;36.00;99.90;;;;;;5020897;28;20021;-79
2022/07/30 08:59:00;;;;;;;2.78;2.00;;;36.20;99.90;;;;;;5021136;28;20030;-80
2022/07/30 09:01:26;;;;;;;2.25;1.80;;;39.10;99.90;;;;;;5034022;28;20042;-80
2022/07/30 09:03:52;;;;;;;6.13;2.47;;;40.20;99.90;;;;;;5027972;28;20022;-80
2022/07/30 09:06:18;;;;;;;3.65;2.60;;;39.00;99.90;;;;;;5035295;28;20021;-80
2022/07/30 09:08:43;;;;;;;4.07;2.65;;;34.80;99.90;;;;;;5033025;28;20151;-80
2022/07/30 09:11:09;;;;;;;4.88;2.58;;;38.90;99.90;;;;;;5037040;28;20052;-80
2022/07/30 09:13:38;;;;;;;4.40;2.00;;;41.00;99.90;;;;;;5034475;28;20026;-80
2022/07/30 09:16:04;;;;;;;4.28;2.00;;;42.70;99.90;;;;;;5032674;28;20014;-81
2022/07/30 09:18:34;;;;;;;4.18;2.63;;;43.80;99.90;;;;;;5032786;28;20014;-81
2022/07/30 09:21:23;;;;;;;4.43;2.20;;;43.30;99.90;;;;;;5030448;28;20370;-80
2022/07/30 09:23:55;;;;;;;3.23;1.90;;;43.40;99.90;;;;;;5026511;28;20023;-80
2022/07/30 09:26:20;;;;;;;4.57;2.05;;;43.80;99.90;;;;;;5034152;28;20285;-80
2022/07/30 09:28:46;;;;;;;2.35;1.85;;;41.30;99.90;;;;;;5036770;28;20026;-81
2022/07/30 09:31:12;;;;;;;4.18;2.17;;;43.10;99.90;;;;;;5033705;28;20060;-80
2022/07/30 09:33:43;;;;;;;5.45;2.42;;;44.40;99.90;;;;;;5036485;28;20041;-80
2022/07/30 09:36:12;;;;;;;2.90;1.88;;;42.70;99.90;;;;;;5037140;28;20022;-80
2022/07/30 09:38:48;;;;;;;3.28;2.33;;;43.30;99.90;;;;;;5040453;28;20030;-80
2022/07/30 09:41:17;;;;;;;4.65;2.03;;;44.20;99.90;;;;;;5043105;28;20045;-80
2022/07/30 09:43:51;;;;;;;4.40;2.00;;;44.20;99.90;;;;;;5031989;28;20018;-80
2022/07/30 09:46:17;;;;;;;3.38;2.00;;;44.50;99.90;;;;;;5042596;28;20038;-80
2022/07/30 09:48:45;;;;;;;5.75;2.20;;;44.70;99.90;;;;;;5037939;28;20018;-80
2022/07/30 09:51:11;;;;;;;5.87;2.40;;;41.10;99.90;;;;;;5046857;28;20041;-80
2022/07/30 09:53:53;;;;;;;3.35;2.50;;;42.90;99.90;;;;;;5036184;28;20018;-80
2022/07/30 09:56:27;;;;;;;3.28;2.20;;;41.80;99.90;;;;;;5035655;28;20040;-80
2022/07/30 09:58:53;;;;;;;3.63;2.15;;;42.90;99.90;;;;;;5043234;28;20018;-80
2022/07/30 10:01:19;;;;;;;5.03;2.65;;;43.10;99.90;;;;;;5029474;28;20037;-79
2022/07/30 10:03:45;;;;;;;3.38;1.90;;;42.80;99.90;;;;;;5041087;28;20029;-79
2022/07/30 10:06:10;;;;;;;5.32;2.08;;;43.50;99.90;;;;;;5032488;28;20029;-74
2022/07/30 10:08:43;;;;;;;4.55;2.03;;;43.50;99.90;;;;;;5024758;28;20080;-74
2022/07/30 10:11:14;;;;;;;4.82;1.80;;;43.00;99.90;;;;;;5019348;28;20081;-75
2022/07/30 10:13:42;;;;;;;3.47;1.70;;;43.90;99.90;;;;;;5015999;28;20041;-74
2022/07/30 10:16:07;;;;;;;3.25;1.90;;;42.70;99.90;;;;;;5025346;28;20015;-74
2022/07/30 10:18:34;;;;;;;3.50;1.80;;;42.10;99.90;;;;;;5023751;28;20064;-75
2022/07/30 10:21:00;;;;;;;3.90;1.70;;;42.30;99.90;;;;;;5022790;28;20072;-75
2022/07/30 10:23:31;;;;;;;4.60;1.60;;;43.50;99.90;;;;;;5024410;28;20081;-75
2022/07/30 10:25:58;;;;;;;2.50;1.80;;;43.50;99.90;;;;;;5024094;28;20037;-75
2022/07/30 10:28:24;;;;;;;2.47;1.50;;;43.50;99.90;;;;;;5024524;28;20033;-75
2022/07/30 10:30:52;;;;;;;3.05;1.60;;;44.10;99.90;;;;;;5030568;28;20022;-75
2022/07/30 10:33:19;;;;;;;5.00;1.48;;;43.00;99.90;;;;;;5021720;28;20050;-76
2022/07/30 10:35:45;;;;;;;3.35;1.52;;;43.70;99.90;;;;;;5022650;28;20032;-75
2022/07/30 10:38:13;;;;;;;4.07;1.55;;;42.90;99.90;;;;;;5022948;28;20097;-75
2022/07/30 10:41:17;;;;;;;3.80;1.83;;;43.40;99.90;;;;;;5026441;28;20034;-75
2022/07/30 10:44:07;;;;;;;6.07;1.67;;;41.70;99.90;;;;;;5022662;28;20076;-75
2022/07/30 10:46:51;;;;;;;1.67;1.55;;;41.20;99.90;;;;;;5028342;28;20026;-75
2022/07/30 10:49:17;;;;;;;2.45;1.45;;;40.80;99.90;;;;;;5018403;28;20175;-74
2022/07/30 10:51:48;;;;;;;2.88;1.77;;;40.70;99.90;;;;;;5026720;28;20462;-73
2022/07/30 10:54:32;;;;;;;2.97;1.20;;;41.30;99.90;;;;;;5016259;28;20056;-74
2022/07/30 10:57:10;;;;;;;1.77;1.35;;;39.10;99.90;;;;;;5012024;28;20105;-73
2022/07/30 10:59:51;;;;;;;1.48;1.27;;;38.60;99.90;;;;;;5016771;28;20033;-74
2022/07/30 11:02:20;;;;;;;1.50;1.00;;;40.60;99.90;;;;;;5005821;28;20505;-74
2022/07/30 11:04:45;;;;;;;3.57;1.50;;;40.00;99.90;;;;;;5031570;28;20025;-73
2022/07/30 11:07:23;;;;;;;2.25;1.63;;;38.60;99.90;;;;;;5035391;28;20753;-74
2022/07/30 11:09:50;;;;;;;2.25;1.15;;;37.00;99.90;;;;;;4995940;28;20015;-74
2022/07/30 11:12:42;;;;;;;3.95;1.45;;;35.50;99.90;;;;;;4995511;28;20038;-74
2022/07/30 11:15:09;;;;;;;2.50;1.25;;;34.80;99.90;;;;;;5014283;28;20125;-73
2022/07/30 11:18:01;;;;;;;2.00;1.20;;;33.50;99.90;;;;;;5022669;28;20026;-74
2022/07/30 11:20:29;;;;;;;1.30;1.08;;;31.40;99.90;;;;;;5035096;28;20045;-74
2022/07/30 11:23:19;;;;;;;2.28;1.10;;;31.00;99.90;;;;;;5035183;28;20096;-74
2022/07/30 11:25:46;;;;;;;2.83;1.20;;;30.50;99.90;;;;;;5012376;28;20025;-74
2022/07/30 11:28:35;;;;;;;3.45;1.50;;;30.20;99.90;;;;;;5015848;28;20014;-73
2022/07/30 11:31:01;;;;;;;5.18;1.58;;;30.00;99.90;;;;;;5014556;28;20099;-74
2022/07/30 11:33:27;;;;;;;1.80;1.23;;;29.60;99.90;;;;;;5014333;28;20129;-73
2022/07/30 11:36:13;;;;;;;4.93;1.60;;;29.00;99.90;;;;;;5016959;28;20022;-75
2022/07/30 11:38:56;;;;;;;2.17;1.50;;;28.80;99.90;;;;;;5009597;28;20091;-75
2022/07/30 11:41:22;;;;;;;1.55;1.25;;;28.60;99.90;;;;;;4995871;28;20030;-75
2022/07/30 11:43:48;;;;;;;3.88;1.50;;;28.60;99.90;;;;;;5005763;28;20014;-75
2022/07/30 11:46:21;;;;;;;2.58;1.50;;;29.00;99.90;;;;;;5016096;28;20033;-75
2022/07/30 11:49:04;;;;;;;3.15;1.48;;;29.10;99.90;;;;;;5016175;28;20048;-75
2022/07/30 11:51:44;;;;;;;1.80;1.50;;;28.60;99.90;;;;;;5015133;28;20097;-75
2022/07/30 11:54:11;;;;;;;4.53;1.50;;;28.40;99.90;;;;;;4995145;28;20680;-73
2022/07/30 11:56:46;;;;;;;3.15;1.20;;;28.60;99.90;;;;;;5007615;28;20117;-75
2022/07/30 11:59:12;;;;;;;2.83;1.50;;;28.60;99.90;;;;;;5017470;28;20022;-75
2022/07/30 12:01:42;;;;;;;9.73;2.00;;;28.10;99.90;;;;;;5020789;28;20033;-74
2022/07/30 12:04:08;;;;;;;;;;;28.00;99.90;;;;;;5031539;28;20073;-74
2022/07/30 12:06:42;;;;;;;10.55;1.95;;;28.20;99.90;;;;;;5022436;28;19909;-74
2022/07/30 12:09:08;;;;;;;36.25;3.85;;;28.10;99.90;;;;;;5030809;28;20022;-74
2022/07/30 12:11:35;;;;;;;3.28;1.58;;;28.40;99.90;;;;;;5030620;28;20042;-74
2022/07/30 12:14:02;;;;;;;2.42;1.63;;;28.20;99.90;;;;;;5029419;28;20078;-74
2022/07/30 12:16:29;;;;;;;2.28;1.38;;;27.70;99.90;;;;;;5032880;28;20009;-75
2022/07/30 12:19:04;;;;;;;1.52;1.20;;;27.10;99.90;;;;;;5034817;28;20061;-74
2022/07/30 12:21:30;;;;;;;2.53;1.15;;;27.10;99.90;;;;;;5027940;28;20092;-74
2022/07/30 12:24:00;;;;;;;3.58;1.42;;;27.30;99.90;;;;;;5040481;28;20014;-74
2022/07/30 12:26:31;;;;;;;1.65;1.30;;;27.60;99.90;;;;;;5032702;28;20031;-74
2022/07/30 12:29:00;;;;;;;3.63;1.85;;;27.20;99.90;;;;;;5031540;28;20146;-74
2022/07/30 12:31:26;;;;;;;2.60;1.20;;;27.10;99.90;;;;;;5032423;28;20017;-74
2022/07/30 12:33:55;;;;;;;3.92;1.58;;;26.80;99.90;;;;;;5031747;28;20141;-74
2022/07/30 12:36:33;;;;;;;3.25;1.48;;;27.10;99.90;;;;;;5027534;28;20033;-74
2022/07/30 12:39:01;;;;;;;2.38;1.20;;;26.80;99.90;;;;;;5016902;28;20026;-74
2022/07/30 12:41:47;;;;;;;3.05;1.70;;;26.90;99.90;;;;;;5020272;28;20018;-73
2022/07/30 12:44:43;;;;;;;1.90;1.52;;;27.20;99.90;;;;;;5021606;28;20103;-73
2022/07/30 12:47:22;;;;;;;2.35;1.50;;;27.30;99.90;;;;;;5025127;28;20030;-74
2022/07/30 12:49:48;;;;;;;3.40;1.60;;;27.30;99.90;;;;;;5005880;28;20080;-74
2022/07/30 12:52:27;;;;;;;4.47;2.03;;;27.60;99.90;;;;;;5015585;28;20026;-74